Time;durP1;ratioP1;P1;durP2;ratioP2;P2;SDS_P1;SDS_P2;PMS_P1;PMS_P2;Temp;Humidity;BMP_temperature;BMP_pressure;BME280_temperature;BME280_humidity;BME280_pressure;Samples;Min_cycle;Max_cycle;Signal;HPM_P1;HPM_P2
2023/09/13 00:01:49;;;;;;;;;;;;;;;21.84;67.84;100613.91;4977638;28;6144;-65
2023/09/13 00:04:15;;;;;;;;;;;;;;;21.85;68.27;100621.16;4975192;28;2387;-64
2023/09/13 00:06:42;;;;;;;;;;;;;;;21.84;67.96;100622.56;4979100;28;1811;-65
2023/09/13 00:09:08;;;;;;;;;;;;;;;21.85;68.29;100635.56;4977449;28;2081;-65
2023/09/13 00:11:35;;;;;;;;;;;;;;;21.85;68.24;100632.69;4979167;28;1847;-64
2023/09/13 00:14:01;;;;;;;;;;;;;;;21.86;68.44;100637.78;4975958;28;2096;-64
2023/09/13 00:16:28;;;;;;;;;;;;;;;21.88;68.12;100640.00;4976943;28;2195;-64
2023/09/13 00:18:54;;;;;;;;;;;;;;;21.86;68.30;100634.16;4978146;28;2101;-65
2023/09/13 00:21:21;;;;;;;;;;;;;;;21.87;68.57;100615.47;4974993;28;2183;-64
2023/09/13 00:23:47;;;;;;;;;;;;;;;21.85;68.52;100618.25;4974739;28;2470;-65
2023/09/13 00:26:14;;;;;;;;;;;;;;;21.87;68.36;100621.22;4976171;28;2233;-65
2023/09/13 00:28:43;;;;;;;;;;;;;;;21.85;68.59;100618.25;4989878;28;2151;-64
2023/09/13 00:31:09;;;;;;;;;;;;;;;21.87;68.77;100618.34;4974704;28;6560;-64
2023/09/13 00:33:36;;;;;;;;;;;;;;;21.87;68.71;100612.56;4975236;28;2180;-64
2023/09/13 00:36:02;;;;;;;;;;;;;;;21.86;68.74;100620.50;4973690;28;2202;-64
2023/09/13 00:38:29;;;;;;;;;;;;;;;21.85;68.60;100626.91;4976169;28;2128;-65
2023/09/13 00:40:55;;;;;;;;;;;;;;;21.84;68.73;100622.56;4975364;28;2642;-65
2023/09/13 00:43:22;;;;;;;;;;;;;;;21.87;68.40;100635.63;4977764;28;1627;-65
2023/09/13 00:45:48;;;;;;;;;;;;;;;21.85;68.39;100629.78;4976060;28;2160;-64
2023/09/13 00:48:15;;;;;;;;;;;;;;;21.86;68.65;100631.28;4975640;28;1955;-64
2023/09/13 00:50:41;;;;;;;;;;;;;;;21.87;68.74;100627.00;4976940;28;1796;-65
2023/09/13 00:53:18;;;;;;;;;;;;;;;21.87;68.49;100638.53;4974993;28;2254;-65
2023/09/13 00:55:46;;;;;;;;;;;;;;;21.88;68.63;100629.22;4976514;28;2193;-65
2023/09/13 00:58:12;;;;;;;;;;;;;;;21.88;68.73;100628.47;4974559;28;2172;-65
2023/09/13 01:00:39;;;;;;;;;;;;;;;21.89;68.46;100632.84;4979739;28;6305;-65
2023/09/13 01:03:06;;;;;;;;;;;;;;;21.86;68.42;100625.53;4974822;28;2018;-65
2023/09/13 01:05:34;;;;;;;;;;;;;;;21.88;68.82;100640.00;4976098;28;2116;-64
2023/09/13 01:08:00;;;;;;;;;;;;;;;21.85;68.43;100629.78;4975358;28;2227;-65
2023/09/13 01:10:27;;;;;;;;;;;;;;;21.83;68.98;100629.72;4989145;28;2096;-65
2023/09/13 01:12:53;;;;;;;;;;;;;;;21.82;68.71;100628.25;4974012;28;2184;-65
2023/09/13 01:15:20;;;;;;;;;;;;;;;21.84;68.91;100636.97;4975332;28;2152;-65
2023/09/13 01:17:52;;;;;;;;;;;;;;;21.82;69.09;100629.00;4973328;28;1980;-64
2023/09/13 01:20:30;;;;;;;;;;;;;;;21.84;68.97;100616.81;4972373;28;2823;-65
2023/09/13 01:23:19;;;;;;;;;;;;;;;21.84;69.13;100616.81;4976794;28;2239;-65
2023/09/13 01:25:49;;;;;;;;;;;;;;;21.82;69.18;100605.94;4968589;28;2124;-65
2023/09/13 01:28:28;;;;;;;;;;;;;;;21.82;69.60;100573.50;4987486;28;2076;-65
2023/09/13 01:30:54;;;;;;;;;;;;;;;21.80;69.85;100573.41;4974850;28;6291;-64
2023/09/13 01:33:22;;;;;;;;;;;;;;;21.80;69.91;100570.53;4979039;28;2275;-65
2023/09/13 01:35:48;;;;;;;;;;;;;;;21.83;69.81;100584.38;4974165;28;1745;-65
2023/09/13 01:38:14;;;;;;;;;;;;;;;21.84;69.95;100599.50;4974993;28;2195;-65
2023/09/13 01:40:41;;;;;;;;;;;;;;;21.88;69.50;100744.53;4975013;28;2541;-65
2023/09/13 01:43:07;;;;;;;;;;;;;;;21.95;69.10;100817.56;4976257;28;2199;-65
2023/09/13 01:45:35;;;;;;;;;;;;;;;21.92;68.95;100844.81;4974870;28;2128;-64
2023/09/13 01:48:01;;;;;;;;;;;;;;;21.89;69.50;100838.25;4979800;28;2294;-64
2023/09/13 01:50:28;;;;;;;;;;;;;;;21.88;69.46;100844.69;4975519;28;1897;-65
2023/09/13 01:52:54;;;;;;;;;;;;;;;21.92;69.30;100854.22;4975587;28;2446;-65
2023/09/13 01:55:21;;;;;;;;;;;;;;;21.97;68.92;100832.06;4970120;28;2187;-65
2023/09/13 01:57:48;;;;;;;;;;;;;;;22.04;68.67;100807.84;4988664;28;2235;-65
2023/09/13 02:00:15;;;;;;;;;;;;;;;22.04;68.28;100790.53;4971089;28;6224;-65
2023/09/13 02:02:41;;;;;;;;;;;;;;;22.05;68.62;100771.81;4972262;28;2341;-65
2023/09/13 02:05:08;;;;;;;;;;;;;;;22.07;68.20;100733.69;4974658;28;2411;-65
2023/09/13 02:07:34;;;;;;;;;;;;;;;22.06;68.10;100735.84;4988202;28;2183;-65
2023/09/13 02:10:01;;;;;;;;;;;;;;;22.07;68.22;100734.41;4973224;28;2230;-65
2023/09/13 02:12:27;;;;;;;;;;;;;;;22.08;67.76;100718.59;4975782;28;2121;-65
2023/09/13 02:14:54;;;;;;;;;;;;;;;22.07;67.95;100720.00;4972280;28;2065;-65
2023/09/13 02:17:21;;;;;;;;;;;;;;;22.08;67.87;100718.59;4988779;28;2266;-65
2023/09/13 02:19:48;;;;;;;;;;;;;;;22.09;67.67;100702.78;4972112;28;2298;-65
2023/09/13 02:22:15;;;;;;;;;;;;;;;22.08;67.49;100692.66;4988105;28;2535;-65
2023/09/13 02:24:41;;;;;;;;;;;;;;;22.08;67.76;100684.00;4971251;28;2177;-65
2023/09/13 02:27:08;;;;;;;;;;;;;;;22.09;67.69;100684.75;4971309;28;2205;-65
2023/09/13 02:29:34;;;;;;;;;;;;;;;22.09;67.65;100682.59;4974053;28;2245;-65
2023/09/13 02:32:01;;;;;;;;;;;;;;;22.10;67.33;100663.88;4982438;28;6158;-65
2023/09/13 02:34:27;;;;;;;;;;;;;;;22.09;67.57;100630.69;4987688;28;2186;-65
2023/09/13 02:36:54;;;;;;;;;;;;;;;22.10;67.57;100609.06;4989626;28;2522;-65
2023/09/13 02:39:36;;;;;;;;;;;;;;;22.10;67.15;100603.31;4973708;28;2262;-65
2023/09/13 02:42:03;;;;;;;;;;;;;;;22.11;66.96;100609.84;4988076;28;2175;-65
2023/09/13 02:44:32;;;;;;;;;;;;;;;22.10;67.28;100568.72;4971880;28;2148;-65
2023/09/13 02:46:59;;;;;;;;;;;;;;;22.11;67.15;100535.59;4972355;28;2219;-65
2023/09/13 02:49:26;;;;;;;;;;;;;;;22.12;67.15;100536.31;4970880;28;2116;-66
2023/09/13 02:51:52;;;;;;;;;;;;;;;22.12;67.13;100536.31;4974023;28;2459;-65
2023/09/13 02:54:20;;;;;;;;;;;;;;;22.12;67.22;100534.19;4972048;28;2180;-65
2023/09/13 02:56:47;;;;;;;;;;;;;;;22.12;66.78;100519.75;4969202;28;2751;-65
2023/09/13 02:59:13;;;;;;;;;;;;;;;22.12;66.80;100493.81;4974816;28;2222;-65
2023/09/13 03:01:40;;;;;;;;;;;;;;;22.12;66.99;100485.16;4971799;28;6063;-65
2023/09/13 03:04:06;;;;;;;;;;;;;;;22.14;66.84;100527.75;4971557;28;2185;-65
2023/09/13 03:06:33;;;;;;;;;;;;;;;22.13;66.85;100521.25;4971602;28;2271;-65
2023/09/13 03:08:59;;;;;;;;;;;;;;;22.13;67.07;100489.53;4972555;28;2295;-65
2023/09/13 03:11:26;;;;;;;;;;;;;;;22.14;66.87;100516.94;4968742;28;2267;-65
2023/09/13 03:13:53;;;;;;;;;;;;;;;22.15;66.42;100534.97;4988937;28;2259;-65
2023/09/13 03:16:20;;;;;;;;;;;;;;;22.13;66.96;100541.44;4980790;28;2181;-65
2023/09/13 03:18:48;;;;;;;;;;;;;;;22.14;66.64;100528.47;4975197;28;2697;-65
2023/09/13 03:21:18;;;;;;;;;;;;;;;22.15;66.52;100520.56;4975540;28;2377;-65
2023/09/13 03:23:45;;;;;;;;;;;;;;;22.13;66.60;100521.25;4992423;28;2265;-65
2023/09/13 03:26:13;;;;;;;;;;;;;;;22.15;66.84;100518.44;4989188;28;2200;-65
2023/09/13 03:28:41;;;;;;;;;;;;;;;22.16;66.40;100519.16;4992261;28;2092;-65
2023/09/13 03:31:09;;;;;;;;;;;;;;;22.15;66.57;100529.22;4975226;28;6281;-65
2023/09/13 03:33:36;;;;;;;;;;;;;;;22.15;66.68;100524.22;4975085;28;2196;-65
2023/09/13 03:36:02;;;;;;;;;;;;;;;22.15;66.63;100514.78;4974815;28;2141;-65
2023/09/13 03:38:29;;;;;;;;;;;;;;;22.14;66.54;100505.41;4991367;28;2194;-65
2023/09/13 03:40:55;;;;;;;;;;;;;;;22.15;66.63;100504.03;4986286;28;2224;-65
2023/09/13 03:43:22;;;;;;;;;;;;;;;22.16;66.36;100496.09;4975622;28;2176;-65
2023/09/13 03:45:48;;;;;;;;;;;;;;;22.15;66.39;100501.13;4992160;28;2144;-65
2023/09/13 03:48:15;;;;;;;;;;;;;;;22.15;66.54;100491.72;4977297;28;2069;-65
2023/09/13 03:50:41;;;;;;;;;;;;;;;22.15;66.29;100495.38;4991532;28;2225;-65
2023/09/13 03:53:07;;;;;;;;;;;;;;;22.16;66.27;100488.19;4977353;28;2499;-65
2023/09/13 03:55:34;;;;;;;;;;;;;;;22.16;66.32;100485.28;4974295;28;2444;-65
2023/09/13 03:58:00;;;;;;;;;;;;;;;22.16;66.41;100479.53;4982359;28;2756;-65
2023/09/13 04:00:27;;;;;;;;;;;;;;;22.16;66.26;100491.06;4986769;28;6413;-64
2023/09/13 04:02:53;;;;;;;;;;;;;;;22.15;66.27;100483.06;4973807;28;2331;-65
2023/09/13 04:05:20;;;;;;;;;;;;;;;22.15;66.47;100486.72;4969900;28;2494;-64
2023/09/13 04:07:46;;;;;;;;;;;;;;;22.17;66.46;100500.44;4976290;28;2105;-65
2023/09/13 04:10:13;;;;;;;;;;;;;;;22.15;66.11;100501.13;4993134;28;2207;-65
2023/09/13 04:12:39;;;;;;;;;;;;;;;22.16;66.48;100501.88;4975535;28;2164;-65
2023/09/13 04:15:06;;;;;;;;;;;;;;;22.15;66.40;100512.66;4976309;28;2660;-65
2023/09/13 04:17:33;;;;;;;;;;;;;;;22.17;66.06;100514.88;4972192;28;2215;-64
2023/09/13 04:20:00;;;;;;;;;;;;;;;22.17;66.09;100511.97;4971088;28;2715;-65
2023/09/13 04:22:27;;;;;;;;;;;;;;;22.17;66.75;100509.09;4973970;28;2238;-62
2023/09/13 04:24:53;;;;;;;;;;;;;;;22.11;67.31;100511.78;4975471;28;2235;-63
2023/09/13 04:27:21;;;;;;;;;;;;;;;22.05;67.23;100518.09;4980364;28;2262;-61
2023/09/13 04:29:48;;;;;;;;;;;;;;;21.90;69.21;100516.88;4979112;28;2240;-64
2023/09/13 04:32:14;;;;;;;;;;;;;;;21.82;69.70;100510.06;4974511;28;6131;-65
2023/09/13 04:34:41;;;;;;;;;;;;;;;21.78;70.35;100512.81;4986350;28;2066;-65
2023/09/13 04:37:08;;;;;;;;;;;;;;;21.74;70.95;100511.28;4989758;28;2258;-65
2023/09/13 04:39:36;;;;;;;;;;;;;;;21.70;71.25;100516.91;4975735;28;2373;-65
2023/09/13 04:42:03;;;;;;;;;;;;;;;21.68;71.43;100513.94;4975856;28;2191;-65
2023/09/13 04:44:30;;;;;;;;;;;;;;;21.67;71.54;100521.13;4978572;28;2093;-65
2023/09/13 04:46:56;;;;;;;;;;;;;;;21.66;71.67;100528.28;4991918;28;2817;-65
2023/09/13 04:49:24;;;;;;;;;;;;;;;21.70;71.53;100530.56;4973385;28;2613;-65
2023/09/13 04:51:50;;;;;;;;;;;;;;;21.71;71.66;100529.88;4992340;28;2187;-65
2023/09/13 04:54:17;;;;;;;;;;;;;;;21.72;71.72;100536.41;4989508;28;2284;-65
2023/09/13 04:56:43;;;;;;;;;;;;;;;21.77;71.64;100548.81;4990016;28;2383;-65
2023/09/13 04:59:10;;;;;;;;;;;;;;;21.83;71.57;100546.13;4987854;28;2254;-65
2023/09/13 05:01:36;;;;;;;;;;;;;;;21.84;71.74;100553.38;4974455;28;6053;-65
2023/09/13 05:04:03;;;;;;;;;;;;;;;21.88;71.85;100565.06;4976571;28;2143;-65
2023/09/13 05:06:29;;;;;;;;;;;;;;;21.88;71.85;100568.69;4976022;28;2120;-65
2023/09/13 05:08:56;;;;;;;;;;;;;;;21.90;71.89;100563.00;4976815;28;2172;-65
2023/09/13 05:11:23;;;;;;;;;;;;;;;21.89;71.67;100573.03;4976172;28;2182;-64
2023/09/13 05:13:50;;;;;;;;;;;;;;;21.87;72.23;100575.09;4978848;28;2219;-65
2023/09/13 05:16:19;;;;;;;;;;;;;;;21.85;72.48;100578.69;4977557;28;2239;-65
2023/09/13 05:18:46;;;;;;;;;;;;;;;21.88;72.63;100588.13;4975697;28;2204;-70
2023/09/13 05:21:12;;;;;;;;;;;;;;;21.85;72.73;100586.56;4976140;28;2221;-65
2023/09/13 05:23:39;;;;;;;;;;;;;;;21.84;72.66;100580.06;4974289;28;2389;-65
2023/09/13 05:26:05;;;;;;;;;;;;;;;21.83;72.76;100586.47;4973971;28;2187;-65
2023/09/13 05:28:33;;;;;;;;;;;;;;;21.83;72.72;100577.84;4974213;28;2477;-65
2023/09/13 05:31:00;;;;;;;;;;;;;;;21.84;72.67;100582.22;4977246;28;6179;-65
2023/09/13 05:33:27;;;;;;;;;;;;;;;21.84;72.90;100574.28;4976834;28;2119;-65
2023/09/13 05:35:54;;;;;;;;;;;;;;;21.85;72.69;100569.25;4976450;28;2127;-65
2023/09/13 05:38:21;;;;;;;;;;;;;;;21.87;72.86;100575.84;4976026;28;2199;-65
2023/09/13 05:40:47;;;;;;;;;;;;;;;21.81;73.05;100567.00;4976231;28;2183;-65
2023/09/13 05:43:13;;;;;;;;;;;;;;;21.82;72.98;100570.59;4977923;28;2214;-65
2023/09/13 05:45:40;;;;;;;;;;;;;;;21.86;72.88;100567.88;4977115;28;2133;-65
2023/09/13 05:48:07;;;;;;;;;;;;;;;21.80;73.37;100570.53;4974790;28;2563;-65
2023/09/13 05:50:33;;;;;;;;;;;;;;;21.84;73.10;100556.28;4990835;28;2184;-65
2023/09/13 05:53:00;;;;;;;;;;;;;;;21.87;73.22;100563.56;4973470;28;2312;-65
2023/09/13 05:55:26;;;;;;;;;;;;;;;21.87;73.20;100570.06;4975536;28;2245;-65
2023/09/13 05:57:53;;;;;;;;;;;;;;;21.84;73.23;100562.03;4983937;28;2179;-65
2023/09/13 06:00:19;;;;;;;;;;;;;;;21.78;73.66;100567.56;4975249;28;6063;-65
2023/09/13 06:02:46;;;;;;;;;;;;;;;21.80;73.92;100559.00;4978623;28;1713;-65
2023/09/13 06:05:12;;;;;;;;;;;;;;;21.82;73.38;100567.72;4991557;28;2601;-65
2023/09/13 06:07:38;;;;;;;;;;;;;;;21.83;73.39;100563.44;4977021;28;2180;-65
2023/09/13 06:10:05;;;;;;;;;;;;;;;21.80;73.92;100564.75;4975297;28;2232;-65
2023/09/13 06:12:32;;;;;;;;;;;;;;;21.80;74.42;100564.75;4981416;28;2160;-65
2023/09/13 06:14:59;;;;;;;;;;;;;;;21.77;74.29;100571.88;4981121;28;1802;-65
2023/09/13 06:17:25;;;;;;;;;;;;;;;21.77;74.48;100571.88;4976012;28;2104;-66
2023/09/13 06:19:52;;;;;;;;;;;;;;;21.79;74.48;100580.59;4976141;28;1934;-65
2023/09/13 06:22:19;;;;;;;;;;;;;;;21.78;74.43;100576.22;4976242;28;1649;-65
2023/09/13 06:24:45;;;;;;;;;;;;;;;21.77;74.85;100578.38;4977887;28;1787;-65
2023/09/13 06:27:12;;;;;;;;;;;;;;;21.79;74.65;100589.25;4975786;28;1703;-65
2023/09/13 06:29:38;;;;;;;;;;;;;;;21.79;74.65;100574.84;4978188;28;2188;-65
2023/09/13 06:32:05;;;;;;;;;;;;;;;21.78;75.04;100579.09;4974987;28;6233;-65
2023/09/13 06:34:32;;;;;;;;;;;;;;;21.80;74.66;100582.06;4977772;28;1644;-65
2023/09/13 06:36:59;;;;;;;;;;;;;;;21.80;74.82;100582.78;4976350;28;2144;-65
2023/09/13 06:39:27;;;;;;;;;;;;;;;21.82;74.48;100580.00;4987867;28;2127;-65
2023/09/13 06:41:53;;;;;;;;;;;;;;;21.81;75.01;100589.31;4975014;28;2236;-65
2023/09/13 06:44:20;;;;;;;;;;;;;;;21.83;74.98;100581.47;4976008;28;2377;-65
2023/09/13 06:47:06;;;;;;;;;;;;;;;21.83;74.71;100592.25;4976900;28;2181;-65
2023/09/13 06:49:35;;;;;;;;;;;;;;;21.82;75.15;100591.50;4975554;28;2366;-65
2023/09/13 06:52:03;;;;;;;;;;;;;;;21.83;74.88;100586.47;4974759;28;2288;-64
2023/09/13 06:54:32;;;;;;;;;;;;;;;21.66;76.26;100597.44;4974037;28;2196;-64
2023/09/13 06:57:01;;;;;;;;;;;;;;;21.66;76.27;100603.19;4975829;28;2224;-64
2023/09/13 06:59:31;;;;;;;;;;;;;;;21.64;76.96;100600.22;4973803;28;2081;-64
2023/09/13 07:02:16;;;;;;;;;;;;;;;21.69;76.24;100604.00;4972678;28;6508;-64
2023/09/13 07:04:57;;;;;;;;;;;;;;;21.65;76.22;100613.25;4973429;28;2267;-65
2023/09/13 07:07:26;;;;;;;;;;;;;;;21.38;77.91;100613.63;4974391;28;2231;-69
2023/09/13 07:09:53;;;;;;;;;;;;;;;21.46;76.91;100613.94;4974750;28;2430;-64
2023/09/13 07:12:19;;;;;;;;;;;;;;;21.49;76.58;100609.75;4974936;28;2188;-64
2023/09/13 07:14:50;;;;;;;;;;;;;;;21.39;76.92;100607.19;4972329;28;2721;-64
2023/09/13 07:17:18;;;;;;;;;;;;;;;21.47;76.40;100612.56;4974785;28;2214;-64
2023/09/13 07:19:45;;;;;;;;;;;;;;;21.29;77.11;100619.06;4974045;28;2132;-63
2023/09/13 07:22:11;;;;;;;;;;;;;;;21.27;77.24;100621.13;4974202;28;2330;-63
2023/09/13 07:24:37;;;;;;;;;;;;;;;21.28;76.65;100629.13;4973970;28;2622;-63
2023/09/13 07:27:04;;;;;;;;;;;;;;;21.42;76.14;100620.31;4972515;28;2137;-63
2023/09/13 07:29:31;;;;;;;;;;;;;;;21.43;76.13;100633.31;4975468;28;2333;-63
2023/09/13 07:31:58;;;;;;;;;;;;;;;21.24;76.95;100631.84;4973446;28;6534;-63
2023/09/13 07:34:24;;;;;;;;;;;;;;;21.38;76.51;100631.66;4974977;28;2270;-63
2023/09/13 07:36:58;;;;;;;;;;;;;;;21.41;76.22;100641.13;4973275;28;2304;-63
2023/09/13 07:39:24;;;;;;;;;;;;;;;21.40;76.35;100645.41;4971103;28;2158;-63
2023/09/13 07:41:51;;;;;;;;;;;;;;;21.40;76.08;100645.41;4973817;28;2933;-64
2023/09/13 07:44:17;;;;;;;;;;;;;;;21.54;75.28;100643.09;4972927;28;2527;-65
2023/09/13 07:46:46;;;;;;;;;;;;;;;21.57;75.13;100647.50;4974227;28;2186;-64
2023/09/13 07:49:13;;;;;;;;;;;;;;;21.63;74.83;100644.13;4972571;28;2117;-65
2023/09/13 07:51:39;;;;;;;;;;;;;;;21.59;75.04;100643.97;4975326;28;2724;-65
2023/09/13 07:54:07;;;;;;;;;;;;;;;21.69;74.47;100642.22;4975566;28;2197;-65
2023/09/13 07:56:37;;;;;;;;;;;;;;;21.76;74.13;100646.03;4974206;28;2261;-65
2023/09/13 07:59:03;;;;;;;;;;;;;;;21.81;73.66;100652.72;4974321;28;1911;-65
2023/09/13 08:01:30;;;;;;;;;;;;;;;21.83;73.14;100644.13;4979307;28;6294;-64
2023/09/13 08:03:56;;;;;;;;;;;;;;;21.85;73.15;100658.63;4979774;28;1648;-65
2023/09/13 08:06:23;;;;;;;;;;;;;;;21.88;72.73;100665.97;4980764;28;1791;-65
2023/09/13 08:08:49;;;;;;;;;;;;;;;21.89;73.00;100668.16;4978643;28;1624;-65
2023/09/13 08:11:16;;;;;;;;;;;;;;;21.90;72.55;100668.91;4978676;28;1780;-65
2023/09/13 08:13:42;;;;;;;;;;;;;;;21.91;72.36;100676.16;4980025;28;1878;-64
2023/09/13 08:16:08;;;;;;;;;;;;;;;21.91;72.18;100671.13;4978798;28;1608;-65
2023/09/13 08:18:35;;;;;;;;;;;;;;;21.93;71.99;100673.34;4979922;28;1632;-65
2023/09/13 08:21:01;;;;;;;;;;;;;;;21.93;71.77;100676.22;4979141;28;1918;-65
2023/09/13 08:23:28;;;;;;;;;;;;;;;21.94;72.06;100686.34;4978873;28;1874;-65
2023/09/13 08:25:54;;;;;;;;;;;;;;;21.94;71.59;100678.47;4978073;28;1629;-63
2023/09/13 08:28:30;;;;;;;;;;;;;;;21.94;71.72;100675.56;4979580;28;1763;-63
2023/09/13 08:30:57;;;;;;;;;;;;;;;21.95;71.28;100679.94;4978905;28;6436;-63
2023/09/13 08:33:23;;;;;;;;;;;;;;;21.95;71.25;100674.16;4978524;28;1612;-63
2023/09/13 08:35:50;;;;;;;;;;;;;;;21.98;71.07;100682.88;4979130;28;1807;-63
2023/09/13 08:38:16;;;;;;;;;;;;;;;21.97;71.03;100687.91;4978728;28;1585;-63
2023/09/13 08:40:43;;;;;;;;;;;;;;;21.98;70.92;100689.38;4978652;28;1973;-63
2023/09/13 08:43:09;;;;;;;;;;;;;;;21.99;70.80;100678.59;4980146;28;2008;-63
2023/09/13 08:45:36;;;;;;;;;;;;;;;21.99;70.87;100681.47;4978446;28;1664;-63
2023/09/13 08:48:02;;;;;;;;;;;;;;;21.98;70.75;100689.38;4978918;28;1843;-63
2023/09/13 08:50:29;;;;;;;;;;;;;;;22.00;70.65;100694.50;4978550;28;1619;-65
2023/09/13 08:52:59;;;;;;;;;;;;;;;22.01;70.46;100696.69;4980387;28;1775;-64
2023/09/13 08:55:26;;;;;;;;;;;;;;;22.01;70.77;100699.56;4978113;28;2174;-64
2023/09/13 08:57:53;;;;;;;;;;;;;;;22.00;70.36;100709.66;4983089;28;1944;-64
2023/09/13 09:00:19;;;;;;;;;;;;;;;22.00;70.21;100703.88;4977151;28;6346;-64
2023/09/13 09:02:46;;;;;;;;;;;;;;;22.01;70.23;100714.00;4978992;28;1590;-64
2023/09/13 09:05:13;;;;;;;;;;;;;;;22.01;70.28;100722.66;4978922;28;1617;-64
2023/09/13 09:07:40;;;;;;;;;;;;;;;22.02;70.09;100718.38;4978076;28;1686;-64
2023/09/13 09:10:11;;;;;;;;;;;;;;;22.02;70.25;100712.59;4976848;28;1777;-64
2023/09/13 09:12:38;;;;;;;;;;;;;;;22.03;70.16;100719.84;4992246;28;1800;-64
2023/09/13 09:15:05;;;;;;;;;;;;;;;22.03;70.17;100725.59;4978219;28;1808;-65
2023/09/13 09:17:31;;;;;;;;;;;;;;;22.04;70.21;100727.09;4976753;28;1783;-64
2023/09/13 09:19:59;;;;;;;;;;;;;;;22.05;70.04;100727.84;4978725;28;1915;-64
2023/09/13 09:22:26;;;;;;;;;;;;;;;22.04;70.22;100727.09;4979143;28;1704;-64
2023/09/13 09:24:53;;;;;;;;;;;;;;;22.05;69.79;100728.56;4981609;28;1877;-64
2023/09/13 09:27:19;;;;;;;;;;;;;;;22.05;69.98;100734.34;4977846;28;1584;-64
2023/09/13 09:29:46;;;;;;;;;;;;;;;22.05;69.68;100734.34;4979170;28;1835;-64
2023/09/13 09:32:13;;;;;;;;;;;;;;;22.06;69.81;100740.84;4975609;28;6102;-64
2023/09/13 09:34:40;;;;;;;;;;;;;;;22.05;69.61;100740.09;4976680;28;2327;-64
2023/09/13 09:37:07;;;;;;;;;;;;;;;22.06;69.49;100746.59;4977494;28;2208;-65
2023/09/13 09:39:40;;;;;;;;;;;;;;;22.04;69.75;100744.41;4976504;28;2203;-63
2023/09/13 09:42:06;;;;;;;;;;;;;;;22.12;69.72;100733.16;4975660;28;2235;-67
2023/09/13 09:44:33;;;;;;;;;;;;;;;22.10;69.68;100741.72;4976242;28;2410;-63
2023/09/13 09:46:59;;;;;;;;;;;;;;;22.13;69.67;100726.00;4975667;28;2115;-63
2023/09/13 09:49:25;;;;;;;;;;;;;;;22.12;69.68;100729.53;4976622;28;2184;-63
2023/09/13 09:51:52;;;;;;;;;;;;;;;22.16;69.86;100739.06;4977524;28;1972;-63
2023/09/13 09:54:19;;;;;;;;;;;;;;;22.16;69.31;100767.19;4980242;28;1883;-64
2023/09/13 09:56:45;;;;;;;;;;;;;;;22.17;69.73;100757.88;4973039;28;2391;-65
2023/09/13 09:59:12;;;;;;;;;;;;;;;22.15;70.29;100763.56;4976717;28;2445;-64
2023/09/13 10:01:38;;;;;;;;;;;;;;;22.13;70.80;100763.50;4975705;28;6340;-63
2023/09/13 10:04:08;;;;;;;;;;;;;;;22.12;71.93;100761.25;4972989;28;2496;-63
2023/09/13 10:06:36;;;;;;;;;;;;;;;22.12;71.53;100758.38;4975683;28;2172;-63
2023/09/13 10:09:05;;;;;;;;;;;;;;;22.08;71.83;100764.75;4975248;28;1938;-63
2023/09/13 10:11:32;;;;;;;;;;;;;;;22.08;72.08;100764.75;4976910;28;2223;-65
2023/09/13 10:13:58;;;;;;;;;;;;;;;22.10;72.27;100764.78;4975915;28;2128;-65
2023/09/13 10:16:29;;;;;;;;;;;;;;;22.12;72.35;100773.53;4976583;28;1909;-63
2023/09/13 10:18:55;;;;;;;;;;;;;;;22.12;71.92;100762.00;4976567;28;2252;-63
2023/09/13 10:21:23;;;;;;;;;;;;;;;22.14;72.03;100770.72;4971761;28;2188;-63
2023/09/13 10:23:52;;;;;;;;;;;;;;;22.16;71.78;100779.47;4973970;28;2176;-63
2023/09/13 10:26:18;;;;;;;;;;;;;;;22.16;71.43;100790.25;4980384;28;1964;-63
2023/09/13 10:28:45;;;;;;;;;;;;;;;22.18;70.84;100799.00;4976650;28;2175;-66
2023/09/13 10:31:19;;;;;;;;;;;;;;;22.23;70.55;100794.13;4976779;28;6523;-66
2023/09/13 10:33:52;;;;;;;;;;;;;;;22.23;70.76;100791.25;4975053;28;1994;-66
2023/09/13 10:36:24;;;;;;;;;;;;;;;22.23;70.38;100794.88;4975478;28;2105;-66
2023/09/13 10:39:09;;;;;;;;;;;;;;;22.23;70.24;100794.13;4975389;28;2200;-66
2023/09/13 10:41:40;;;;;;;;;;;;;;;22.22;70.37;100796.28;4974087;28;2046;-66
2023/09/13 10:44:07;;;;;;;;;;;;;;;22.22;70.21;100804.19;4980045;28;2495;-66
2023/09/13 10:46:36;;;;;;;;;;;;;;;22.19;70.06;100794.69;4989427;28;2261;-66
2023/09/13 10:49:03;;;;;;;;;;;;;;;22.22;70.16;100798.41;4973522;28;2244;-66
2023/09/13 10:51:30;;;;;;;;;;;;;;;22.20;70.06;100801.94;4978465;28;2078;-65
2023/09/13 10:53:56;;;;;;;;;;;;;;;22.26;69.88;100805.06;4974606;28;2259;-67
2023/09/13 10:56:23;;;;;;;;;;;;;;;22.30;69.86;100804.50;4974154;28;2180;-67
2023/09/13 10:58:50;;;;;;;;;;;;;;;22.28;69.62;100807.31;4976496;28;2406;-67
2023/09/13 11:01:16;;;;;;;;;;;;;;;22.28;69.41;100819.56;4978617;28;6304;-67
2023/09/13 11:03:42;;;;;;;;;;;;;;;22.27;69.76;100821.00;4977463;28;1629;-67
2023/09/13 11:06:09;;;;;;;;;;;;;;;22.28;69.63;100819.56;4973305;28;2211;-67
2023/09/13 11:08:35;;;;;;;;;;;;;;;22.28;69.63;100825.34;4975090;28;2292;-66
2023/09/13 11:11:18;;;;;;;;;;;;;;;22.26;69.68;100838.97;4974949;28;2207;-67
2023/09/13 11:13:45;;;;;;;;;;;;;;;22.28;69.80;100827.50;4976094;28;2098;-67
2023/09/13 11:16:15;;;;;;;;;;;;;;;22.30;69.71;100831.19;4975703;28;1782;-66
2023/09/13 11:18:46;;;;;;;;;;;;;;;22.34;69.43;100831.34;4976395;28;1632;-66
2023/09/13 11:21:17;;;;;;;;;;;;;;;22.37;69.45;100832.16;4977184;28;1974;-65
2023/09/13 11:23:46;;;;;;;;;;;;;;;22.42;69.50;100842.44;4977163;28;1838;-69
2023/09/13 11:26:43;;;;;;;;;;;;;;;22.58;68.92;100845.19;4976985;28;2176;-66
2023/09/13 11:29:19;;;;;;;;;;;;;;;22.65;68.91;100837.50;4975891;28;1561;-65
2023/09/13 11:31:58;;;;;;;;;;;;;;;22.48;69.26;100848.47;4974774;28;6375;-66
2023/09/13 11:34:27;;;;;;;;;;;;;;;22.51;69.30;100847.13;4983197;28;1652;-65
2023/09/13 11:37:01;;;;;;;;;;;;;;;22.45;69.40;100849.78;4983759;28;1639;-65
2023/09/13 11:39:27;;;;;;;;;;;;;;;22.46;69.38;100851.25;4977230;28;1671;-65
2023/09/13 11:41:55;;;;;;;;;;;;;;;22.44;69.34;100848.31;4978823;28;1971;-65
2023/09/13 11:44:25;;;;;;;;;;;;;;;22.43;69.35;100861.25;4978644;28;1593;-65
2023/09/13 11:46:59;;;;;;;;;;;;;;;22.40;69.22;100859.69;4979265;28;1629;-66
2023/09/13 11:49:26;;;;;;;;;;;;;;;22.43;69.35;100858.38;4983016;28;1777;-65
2023/09/13 11:52:02;;;;;;;;;;;;;;;22.45;69.75;100864.22;4979010;28;1626;-68
2023/09/13 11:54:54;;;;;;;;;;;;;;;22.47;69.67;100861.41;4980069;28;1704;-67
2023/09/13 11:57:28;;;;;;;;;;;;;;;22.49;70.50;100867.25;4978985;28;1581;-67
2023/09/13 12:00:16;;;;;;;;;;;;;;;22.46;71.27;100879.38;4990437;28;6252;-68
2023/09/13 12:02:44;;;;;;;;;;;;;;;22.43;70.35;100881.47;4979814;28;1637;-67
2023/09/13 12:05:12;;;;;;;;;;;;;;;22.41;70.52;100883.53;4979359;28;1662;-67
2023/09/13 12:07:57;;;;;;;;;;;;;;;22.42;70.13;100874.19;4978192;28;1573;-67
2023/09/13 12:10:33;;;;;;;;;;;;;;;22.43;69.79;100887.22;4978205;28;2176;-68
2023/09/13 12:13:02;;;;;;;;;;;;;;;22.43;69.77;100881.47;4984616;28;1790;-68
2023/09/13 12:15:33;;;;;;;;;;;;;;;22.41;69.69;100884.25;4979466;28;1807;-68
2023/09/13 12:18:03;;;;;;;;;;;;;;;22.42;69.85;100888.63;4978789;28;1692;-68
2023/09/13 12:20:31;;;;;;;;;;;;;;;22.44;69.65;100891.59;4979066;28;1914;-68
2023/09/13 12:22:57;;;;;;;;;;;;;;;22.45;69.45;100884.41;4979547;28;1851;-68
2023/09/13 12:25:27;;;;;;;;;;;;;;;22.45;69.64;100901.72;4979336;28;1652;-67
2023/09/13 12:27:53;;;;;;;;;;;;;;;22.45;69.49;100893.06;4979422;28;1679;-68
2023/09/13 12:30:20;;;;;;;;;;;;;;;22.46;69.69;100903.19;4977843;28;6167;-68
2023/09/13 12:32:48;;;;;;;;;;;;;;;22.47;69.42;100904.69;4978503;28;1772;-68
2023/09/13 12:35:14;;;;;;;;;;;;;;;22.48;69.43;100914.09;4977957;28;1784;-68
2023/09/13 12:37:41;;;;;;;;;;;;;;;22.48;69.55;100911.94;4981436;28;2223;-68
2023/09/13 12:40:11;;;;;;;;;;;;;;;22.47;69.69;100904.69;4979825;28;1914;-68
2023/09/13 12:42:38;;;;;;;;;;;;;;;22.47;69.69;100907.59;4978097;28;1561;-68
2023/09/13 12:45:05;;;;;;;;;;;;;;;22.47;69.55;100913.34;4977217;28;1658;-69
2023/09/13 12:47:32;;;;;;;;;;;;;;;22.47;69.67;100919.13;4979514;28;1703;-68
2023/09/13 12:49:59;;;;;;;;;;;;;;;22.47;69.47;100915.47;4978979;28;1617;-69
2023/09/13 12:52:27;;;;;;;;;;;;;;;22.47;69.24;100919.13;4979236;28;1629;-68